sensor_id;sensor_type;location;lat;lon;timestamp;P1;durP1;ratioP1;P2;durP2;ratioP2
22774;SDS011;11554;51.106;3.684;2022-12-10T00:00:00;74.70;;;31.40;;
22774;SDS011;11554;51.106;3.684;2022-12-10T00:05:00;74.70;;;31.40;;
22774;SDS011;11554;51.106;3.684;2022-12-10T00:10:00;75.40;;;30.80;;
22774;SDS011;11554;51.106;3.684;2022-12-10T00:15:00;75.40;;;30.80;;
22774;SDS011;11554;51.106;3.684;2022-12-10T00:20:01;74.40;;;31.20;;
22774;SDS011;11554;51.106;3.684;2022-12-10T00:25:00;74.40;;;31.20;;
22774;SDS011;11554;51.106;3.684;2022-12-10T00:30:00;74.10;;;29.70;;
22774;SDS011;11554;51.106;3.684;2022-12-10T00:35:00;74.10;;;29.70;;
22774;SDS011;11554;51.106;3.684;2022-12-10T00:40:01;74.40;;;31.00;;
22774;SDS011;11554;51.106;3.684;2022-12-10T00:45:01;74.40;;;31.00;;
22774;SDS011;11554;51.106;3.684;2022-12-10T00:50:00;75.50;;;30.60;;
22774;SDS011;11554;51.106;3.684;2022-12-10T00:55:00;75.50;;;30.60;;
22774;SDS011;11554;51.106;3.684;2022-12-10T01:00:01;78.70;;;31.70;;
22774;SDS011;11554;51.106;3.684;2022-12-10T01:05:00;78.70;;;31.70;;
22774;SDS011;11554;51.106;3.684;2022-12-10T01:10:01;78.70;;;31.50;;
22774;SDS011;11554;51.106;3.684;2022-12-10T01:15:00;78.70;;;31.50;;
22774;SDS011;11554;51.106;3.684;2022-12-10T01:20:00;76.90;;;30.30;;
22774;SDS011;11554;51.106;3.684;2022-12-10T01:25:00;76.90;;;30.30;;
22774;SDS011;11554;51.106;3.684;2022-12-10T01:30:01;74.80;;;30.50;;
22774;SDS011;11554;51.106;3.684;2022-12-10T01:35:00;74.80;;;30.50;;
22774;SDS011;11554;51.106;3.684;2022-12-10T01:40:00;113.00;;;25.50;;
22774;SDS011;11554;51.106;3.684;2022-12-10T01:45:07;113.00;;;25.50;;
22774;SDS011;11554;51.106;3.684;2022-12-10T01:50:01;128.60;;;24.50;;
22774;SDS011;11554;51.106;3.684;2022-12-10T01:55:00;128.60;;;24.50;;
22774;SDS011;11554;51.106;3.684;2022-12-10T02:00:04;97.10;;;24.40;;
22774;SDS011;11554;51.106;3.684;2022-12-10T02:05:10;97.10;;;24.40;;
22774;SDS011;11554;51.106;3.684;2022-12-10T02:10:07;99.30;;;23.40;;
22774;SDS011;11554;51.106;3.684;2022-12-10T02:15:05;99.30;;;23.40;;
22774;SDS011;11554;51.106;3.684;2022-12-10T02:20:06;109.80;;;23.40;;
22774;SDS011;11554;51.106;3.684;2022-12-10T02:25:02;109.80;;;23.40;;
22774;SDS011;11554;51.106;3.684;2022-12-10T02:30:01;109.00;;;24.60;;
22774;SDS011;11554;51.106;3.684;2022-12-10T02:35:05;109.00;;;24.60;;
22774;SDS011;11554;51.106;3.684;2022-12-10T02:40:06;64.90;;;22.50;;
22774;SDS011;11554;51.106;3.684;2022-12-10T02:45:01;64.90;;;22.50;;
22774;SDS011;11554;51.106;3.684;2022-12-10T02:50:01;68.00;;;22.90;;
22774;SDS011;11554;51.106;3.684;2022-12-10T02:55:00;68.00;;;22.90;;
22774;SDS011;11554;51.106;3.684;2022-12-10T03:00:05;69.10;;;23.40;;
22774;SDS011;11554;51.106;3.684;2022-12-10T03:05:03;69.10;;;23.40;;
22774;SDS011;11554;51.106;3.684;2022-12-10T03:10:06;76.40;;;24.00;;
22774;SDS011;11554;51.106;3.684;2022-12-10T03:15:04;76.40;;;24.00;;
22774;SDS011;11554;51.106;3.684;2022-12-10T03:20:02;59.60;;;22.80;;
22774;SDS011;11554;51.106;3.684;2022-12-10T03:25:01;59.60;;;22.80;;
22774;SDS011;11554;51.106;3.684;2022-12-10T03:30:00;61.60;;;23.00;;
22774;SDS011;11554;51.106;3.684;2022-12-10T03:35:01;61.60;;;23.00;;
22774;SDS011;11554;51.106;3.684;2022-12-10T03:40:02;65.00;;;23.00;;
22774;SDS011;11554;51.106;3.684;2022-12-10T03:45:01;65.00;;;23.00;;
22774;SDS011;11554;51.106;3.684;2022-12-10T03:50:00;62.50;;;23.20;;
22774;SDS011;11554;51.106;3.684;2022-12-10T03:55:00;62.50;;;23.20;;
22774;SDS011;11554;51.106;3.684;2022-12-10T04:00:01;94.30;;;23.40;;
22774;SDS011;11554;51.106;3.684;2022-12-10T04:05:00;94.30;;;23.40;;
22774;SDS011;11554;51.106;3.684;2022-12-10T04:10:00;70.70;;;22.10;;
22774;SDS011;11554;51.106;3.684;2022-12-10T04:15:00;70.70;;;22.10;;
22774;SDS011;11554;51.106;3.684;2022-12-10T04:20:00;55.20;;;21.10;;
22774;SDS011;11554;51.106;3.684;2022-12-10T04:25:00;55.20;;;21.10;;
22774;SDS011;11554;51.106;3.684;2022-12-10T04:30:01;96.10;;;22.40;;
22774;SDS011;11554;51.106;3.684;2022-12-10T04:35:01;96.10;;;22.40;;
22774;SDS011;11554;51.106;3.684;2022-12-10T04:40:00;75.90;;;20.90;;
22774;SDS011;11554;51.106;3.684;2022-12-10T04:45:00;75.90;;;20.90;;
22774;SDS011;11554;51.106;3.684;2022-12-10T04:50:00;62.20;;;20.50;;
22774;SDS011;11554;51.106;3.684;2022-12-10T04:55:00;62.20;;;20.50;;
22774;SDS011;11554;51.106;3.684;2022-12-10T05:00:00;68.70;;;20.30;;
22774;SDS011;11554;51.106;3.684;2022-12-10T05:05:00;68.70;;;20.30;;
22774;SDS011;11554;51.106;3.684;2022-12-10T05:10:00;81.40;;;18.70;;
22774;SDS011;11554;51.106;3.684;2022-12-10T05:15:00;81.40;;;18.70;;
22774;SDS011;11554;51.106;3.684;2022-12-10T05:20:00;64.20;;;19.30;;
22774;SDS011;11554;51.106;3.684;2022-12-10T05:25:00;64.20;;;19.30;;
22774;SDS011;11554;51.106;3.684;2022-12-10T05:30:00;66.80;;;19.70;;
22774;SDS011;11554;51.106;3.684;2022-12-10T05:35:00;66.80;;;19.70;;
22774;SDS011;11554;51.106;3.684;2022-12-10T05:40:00;77.30;;;20.50;;
22774;SDS011;11554;51.106;3.684;2022-12-10T05:45:00;77.30;;;20.50;;
22774;SDS011;11554;51.106;3.684;2022-12-10T05:50:00;98.90;;;20.20;;
22774;SDS011;11554;51.106;3.684;2022-12-10T05:55:00;98.90;;;20.20;;
22774;SDS011;11554;51.106;3.684;2022-12-10T06:00:00;56.00;;;19.20;;
22774;SDS011;11554;51.106;3.684;2022-12-10T06:05:00;56.00;;;19.20;;
22774;SDS011;11554;51.106;3.684;2022-12-10T06:10:00;85.20;;;19.70;;
22774;SDS011;11554;51.106;3.684;2022-12-10T06:15:00;85.20;;;19.70;;
22774;SDS011;11554;51.106;3.684;2022-12-10T06:20:00;71.50;;;18.50;;
22774;SDS011;11554;51.106;3.684;2022-12-10T06:25:00;71.50;;;18.50;;
22774;SDS011;11554;51.106;3.684;2022-12-10T06:30:00;73.50;;;18.80;;
22774;SDS011;11554;51.106;3.684;2022-12-10T06:35:00;73.50;;;18.80;;
22774;SDS011;11554;51.106;3.684;2022-12-10T06:40:00;72.20;;;21.90;;
22774;SDS011;11554;51.106;3.684;2022-12-10T06:45:00;72.20;;;21.90;;
22774;SDS011;11554;51.106;3.684;2022-12-10T06:50:00;62.10;;;18.20;;
22774;SDS011;11554;51.106;3.684;2022-12-10T06:55:00;62.10;;;18.20;;
22774;SDS011;11554;51.106;3.684;2022-12-10T07:00:00;84.40;;;35.50;;
22774;SDS011;11554;51.106;3.684;2022-12-10T07:05:00;84.40;;;35.50;;
22774;SDS011;11554;51.106;3.684;2022-12-10T07:10:04;58.20;;;17.40;;
22774;SDS011;11554;51.106;3.684;2022-12-10T07:15:00;58.20;;;17.40;;
22774;SDS011;11554;51.106;3.684;2022-12-10T07:20:00;52.90;;;18.30;;
22774;SDS011;11554;51.106;3.684;2022-12-10T07:25:00;52.90;;;18.30;;
22774;SDS011;11554;51.106;3.684;2022-12-10T07:30:00;63.50;;;20.50;;
22774;SDS011;11554;51.106;3.684;2022-12-10T07:35:00;63.50;;;20.50;;
22774;SDS011;11554;51.106;3.684;2022-12-10T07:40:00;50.40;;;18.30;;
22774;SDS011;11554;51.106;3.684;2022-12-10T07:45:00;50.40;;;18.30;;
22774;SDS011;11554;51.106;3.684;2022-12-10T07:50:00;64.60;;;20.60;;
22774;SDS011;11554;51.106;3.684;2022-12-10T07:55:01;64.60;;;20.60;;
22774;SDS011;11554;51.106;3.684;2022-12-10T08:00:00;52.80;;;18.40;;
22774;SDS011;11554;51.106;3.684;2022-12-10T08:05:00;52.80;;;18.40;;
22774;SDS011;11554;51.106;3.684;2022-12-10T08:10:00;50.40;;;18.60;;
22774;SDS011;11554;51.106;3.684;2022-12-10T08:15:00;50.40;;;18.60;;
22774;SDS011;11554;51.106;3.684;2022-12-10T08:20:00;62.10;;;20.90;;
22774;SDS011;11554;51.106;3.684;2022-12-10T08:25:00;62.10;;;20.90;;
22774;SDS011;11554;51.106;3.684;2022-12-10T08:30:01;50.50;;;19.60;;
22774;SDS011;11554;51.106;3.684;2022-12-10T08:35:00;50.50;;;19.60;;
22774;SDS011;11554;51.106;3.684;2022-12-10T08:40:00;54.50;;;22.10;;
22774;SDS011;11554;51.106;3.684;2022-12-10T08:45:00;54.50;;;22.10;;
22774;SDS011;11554;51.106;3.684;2022-12-10T08:50:00;55.10;;;22.00;;
22774;SDS011;11554;51.106;3.684;2022-12-10T08:55:00;55.10;;;22.00;;
22774;SDS011;11554;51.106;3.684;2022-12-10T09:00:00;47.80;;;21.60;;
22774;SDS011;11554;51.106;3.684;2022-12-10T09:05:00;47.80;;;21.60;;
22774;SDS011;11554;51.106;3.684;2022-12-10T09:10:00;51.00;;;21.90;;
22774;SDS011;11554;51.106;3.684;2022-12-10T09:15:00;51.00;;;21.90;;
22774;SDS011;11554;51.106;3.684;2022-12-10T09:20:00;48.80;;;21.10;;
22774;SDS011;11554;51.106;3.684;2022-12-10T09:25:00;48.80;;;21.10;;
22774;SDS011;11554;51.106;3.684;2022-12-10T09:30:00;57.10;;;22.80;;
22774;SDS011;11554;51.106;3.684;2022-12-10T09:35:00;57.10;;;22.80;;
22774;SDS011;11554;51.106;3.684;2022-12-10T09:40:00;45.50;;;21.30;;
22774;SDS011;11554;51.106;3.684;2022-12-10T09:45:09;45.50;;;21.30;;
22774;SDS011;11554;51.106;3.684;2022-12-10T09:50:06;48.10;;;21.80;;
22774;SDS011;11554;51.106;3.684;2022-12-10T09:55:03;48.10;;;21.80;;
22774;SDS011;11554;51.106;3.684;2022-12-10T10:00:04;48.80;;;20.50;;
22774;SDS011;11554;51.106;3.684;2022-12-10T10:05:10;48.80;;;20.50;;
22774;SDS011;11554;51.106;3.684;2022-12-10T10:10:03;50.20;;;20.10;;
22774;SDS011;11554;51.106;3.684;2022-12-10T10:15:12;50.20;;;20.10;;
22774;SDS011;11554;51.106;3.684;2022-12-10T10:20:01;50.50;;;21.80;;
22774;SDS011;11554;51.106;3.684;2022-12-10T10:25:01;50.50;;;21.80;;
22774;SDS011;11554;51.106;3.684;2022-12-10T10:30:04;54.70;;;21.60;;
22774;SDS011;11554;51.106;3.684;2022-12-10T10:35:01;54.70;;;21.60;;
22774;SDS011;11554;51.106;3.684;2022-12-10T10:40:00;47.10;;;21.20;;
22774;SDS011;11554;51.106;3.684;2022-12-10T10:45:02;47.10;;;21.20;;
22774;SDS011;11554;51.106;3.684;2022-12-10T10:50:01;48.00;;;20.20;;
22774;SDS011;11554;51.106;3.684;2022-12-10T10:55:00;48.00;;;20.20;;
22774;SDS011;11554;51.106;3.684;2022-12-10T11:00:05;48.30;;;21.20;;
22774;SDS011;11554;51.106;3.684;2022-12-10T11:05:05;48.30;;;21.20;;
22774;SDS011;11554;51.106;3.684;2022-12-10T11:10:01;39.30;;;17.20;;
22774;SDS011;11554;51.106;3.684;2022-12-10T11:15:01;39.30;;;17.20;;
22774;SDS011;11554;51.106;3.684;2022-12-10T11:20:12;43.00;;;18.70;;
22774;SDS011;11554;51.106;3.684;2022-12-10T11:25:00;43.00;;;18.70;;
22774;SDS011;11554;51.106;3.684;2022-12-10T11:30:03;39.10;;;17.50;;
22774;SDS011;11554;51.106;3.684;2022-12-10T11:35:10;39.10;;;17.50;;
22774;SDS011;11554;51.106;3.684;2022-12-10T11:40:14;35.00;;;14.80;;
22774;SDS011;11554;51.106;3.684;2022-12-10T11:45:07;35.00;;;14.80;;
22774;SDS011;11554;51.106;3.684;2022-12-10T11:50:11;35.50;;;16.20;;
22774;SDS011;11554;51.106;3.684;2022-12-10T11:55:22;35.50;;;16.20;;
22774;SDS011;11554;51.106;3.684;2022-12-10T12:00:05;37.00;;;17.20;;
22774;SDS011;11554;51.106;3.684;2022-12-10T12:05:14;37.00;;;17.20;;
22774;SDS011;11554;51.106;3.684;2022-12-10T12:10:17;36.60;;;18.90;;
22774;SDS011;11554;51.106;3.684;2022-12-10T12:15:08;36.60;;;18.90;;
22774;SDS011;11554;51.106;3.684;2022-12-10T12:20:03;34.00;;;16.30;;
22774;SDS011;11554;51.106;3.684;2022-12-10T12:25:02;34.00;;;16.30;;
22774;SDS011;11554;51.106;3.684;2022-12-10T12:30:06;31.00;;;15.90;;
22774;SDS011;11554;51.106;3.684;2022-12-10T12:35:03;31.00;;;15.90;;
22774;SDS011;11554;51.106;3.684;2022-12-10T12:40:04;32.90;;;16.90;;
22774;SDS011;11554;51.106;3.684;2022-12-10T12:45:03;32.90;;;16.90;;
22774;SDS011;11554;51.106;3.684;2022-12-10T12:50:02;34.80;;;17.00;;
22774;SDS011;11554;51.106;3.684;2022-12-10T12:55:05;34.80;;;17.00;;
22774;SDS011;11554;51.106;3.684;2022-12-10T13:00:03;30.80;;;15.70;;
22774;SDS011;11554;51.106;3.684;2022-12-10T13:05:01;30.80;;;15.70;;
22774;SDS011;11554;51.106;3.684;2022-12-10T13:10:18;35.00;;;17.60;;
22774;SDS011;11554;51.106;3.684;2022-12-10T13:15:13;35.00;;;17.60;;
22774;SDS011;11554;51.106;3.684;2022-12-10T13:25:10;31.30;;;16.90;;
22774;SDS011;11554;51.106;3.684;2022-12-10T13:30:05;36.50;;;18.10;;
22774;SDS011;11554;51.106;3.684;2022-12-10T13:40:14;36.20;;;17.80;;
22774;SDS011;11554;51.106;3.684;2022-12-10T13:45:02;36.20;;;17.80;;
22774;SDS011;11554;51.106;3.684;2022-12-10T13:50:03;36.20;;;17.10;;
22774;SDS011;11554;51.106;3.684;2022-12-10T13:55:12;36.20;;;17.10;;
22774;SDS011;11554;51.106;3.684;2022-12-10T14:00:07;36.10;;;18.50;;
22774;SDS011;11554;51.106;3.684;2022-12-10T14:05:14;36.10;;;18.50;;
22774;SDS011;11554;51.106;3.684;2022-12-10T14:10:01;36.70;;;19.00;;
22774;SDS011;11554;51.106;3.684;2022-12-10T14:15:04;36.70;;;19.00;;
22774;SDS011;11554;51.106;3.684;2022-12-10T14:20:03;41.90;;;20.70;;
22774;SDS011;11554;51.106;3.684;2022-12-10T14:25:02;41.90;;;20.70;;
22774;SDS011;11554;51.106;3.684;2022-12-10T14:30:05;41.40;;;21.20;;
22774;SDS011;11554;51.106;3.684;2022-12-10T14:35:02;41.40;;;21.20;;
22774;SDS011;11554;51.106;3.684;2022-12-10T14:40:01;38.90;;;20.80;;
22774;SDS011;11554;51.106;3.684;2022-12-10T14:45:06;38.90;;;20.80;;
22774;SDS011;11554;51.106;3.684;2022-12-10T14:50:00;55.90;;;29.20;;
22774;SDS011;11554;51.106;3.684;2022-12-10T14:55:01;55.90;;;29.20;;
22774;SDS011;11554;51.106;3.684;2022-12-10T15:00:05;39.80;;;23.50;;
22774;SDS011;11554;51.106;3.684;2022-12-10T15:05:01;39.80;;;23.50;;
22774;SDS011;11554;51.106;3.684;2022-12-10T15:10:01;36.40;;;21.00;;
22774;SDS011;11554;51.106;3.684;2022-12-10T15:15:07;36.40;;;21.00;;
22774;SDS011;11554;51.106;3.684;2022-12-10T15:20:00;37.40;;;21.60;;
22774;SDS011;11554;51.106;3.684;2022-12-10T15:25:13;37.40;;;21.60;;
22774;SDS011;11554;51.106;3.684;2022-12-10T15:35:04;35.50;;;19.40;;
22774;SDS011;11554;51.106;3.684;2022-12-10T15:40:04;54.80;;;30.20;;
22774;SDS011;11554;51.106;3.684;2022-12-10T15:45:03;54.80;;;30.20;;
22774;SDS011;11554;51.106;3.684;2022-12-10T15:50:00;39.00;;;24.20;;
22774;SDS011;11554;51.106;3.684;2022-12-10T15:55:01;39.00;;;24.20;;
22774;SDS011;11554;51.106;3.684;2022-12-10T16:00:04;34.80;;;19.30;;
22774;SDS011;11554;51.106;3.684;2022-12-10T16:05:01;34.80;;;19.30;;
22774;SDS011;11554;51.106;3.684;2022-12-10T16:10:00;37.20;;;20.50;;
22774;SDS011;11554;51.106;3.684;2022-12-10T16:15:00;37.20;;;20.50;;
22774;SDS011;11554;51.106;3.684;2022-12-10T16:20:17;40.20;;;22.10;;
22774;SDS011;11554;51.106;3.684;2022-12-10T16:25:00;40.20;;;22.10;;
22774;SDS011;11554;51.106;3.684;2022-12-10T16:30:00;37.70;;;21.70;;
22774;SDS011;11554;51.106;3.684;2022-12-10T16:35:00;37.70;;;21.70;;
22774;SDS011;11554;51.106;3.684;2022-12-10T16:40:00;36.60;;;20.30;;
22774;SDS011;11554;51.106;3.684;2022-12-10T16:45:00;36.60;;;20.30;;
22774;SDS011;11554;51.106;3.684;2022-12-10T16:50:00;32.50;;;19.80;;
22774;SDS011;11554;51.106;3.684;2022-12-10T16:55:00;32.50;;;19.80;;
22774;SDS011;11554;51.106;3.684;2022-12-10T17:00:00;34.20;;;18.30;;
22774;SDS011;11554;51.106;3.684;2022-12-10T17:05:00;34.20;;;18.30;;
22774;SDS011;11554;51.106;3.684;2022-12-10T17:10:00;42.00;;;25.40;;
22774;SDS011;11554;51.106;3.684;2022-12-10T17:15:00;42.00;;;25.40;;
22774;SDS011;11554;51.106;3.684;2022-12-10T17:20:00;27.20;;;15.50;;
22774;SDS011;11554;51.106;3.684;2022-12-10T17:25:00;27.20;;;15.50;;
22774;SDS011;11554;51.106;3.684;2022-12-10T17:30:00;36.50;;;20.00;;
22774;SDS011;11554;51.106;3.684;2022-12-10T17:35:00;36.50;;;20.00;;
22774;SDS011;11554;51.106;3.684;2022-12-10T17:40:00;33.40;;;20.70;;
22774;SDS011;11554;51.106;3.684;2022-12-10T17:45:00;33.40;;;20.70;;
22774;SDS011;11554;51.106;3.684;2022-12-10T17:50:00;30.70;;;18.70;;
22774;SDS011;11554;51.106;3.684;2022-12-10T17:55:00;30.70;;;18.70;;
22774;SDS011;11554;51.106;3.684;2022-12-10T18:00:00;32.20;;;18.80;;
22774;SDS011;11554;51.106;3.684;2022-12-10T18:05:00;32.20;;;18.80;;
22774;SDS011;11554;51.106;3.684;2022-12-10T18:10:00;35.00;;;18.70;;
22774;SDS011;11554;51.106;3.684;2022-12-10T18:15:00;35.00;;;18.70;;
22774;SDS011;11554;51.106;3.684;2022-12-10T18:20:00;33.40;;;20.10;;
22774;SDS011;11554;51.106;3.684;2022-12-10T18:25:00;33.40;;;20.10;;
22774;SDS011;11554;51.106;3.684;2022-12-10T18:30:00;36.30;;;20.20;;
22774;SDS011;11554;51.106;3.684;2022-12-10T18:35:00;36.30;;;20.20;;
22774;SDS011;11554;51.106;3.684;2022-12-10T18:40:00;31.50;;;18.90;;
22774;SDS011;11554;51.106;3.684;2022-12-10T18:45:00;31.50;;;18.90;;
22774;SDS011;11554;51.106;3.684;2022-12-10T18:50:00;32.50;;;19.40;;
22774;SDS011;11554;51.106;3.684;2022-12-10T18:55:00;32.50;;;19.40;;
22774;SDS011;11554;51.106;3.684;2022-12-10T19:00:00;30.30;;;18.30;;
22774;SDS011;11554;51.106;3.684;2022-12-10T19:05:00;30.30;;;18.30;;
22774;SDS011;11554;51.106;3.684;2022-12-10T19:10:01;30.00;;;17.70;;
22774;SDS011;11554;51.106;3.684;2022-12-10T19:15:00;30.00;;;17.70;;
22774;SDS011;11554;51.106;3.684;2022-12-10T19:20:00;32.40;;;19.50;;
22774;SDS011;11554;51.106;3.684;2022-12-10T19:25:00;32.40;;;19.50;;
22774;SDS011;11554;51.106;3.684;2022-12-10T19:30:00;35.90;;;21.70;;
22774;SDS011;11554;51.106;3.684;2022-12-10T19:35:00;35.90;;;21.70;;
22774;SDS011;11554;51.106;3.684;2022-12-10T19:40:01;33.10;;;19.30;;
22774;SDS011;11554;51.106;3.684;2022-12-10T19:45:00;33.10;;;19.30;;
22774;SDS011;11554;51.106;3.684;2022-12-10T19:50:00;34.30;;;19.70;;
22774;SDS011;11554;51.106;3.684;2022-12-10T19:55:01;34.30;;;19.70;;
22774;SDS011;11554;51.106;3.684;2022-12-10T20:00:00;33.00;;;20.20;;
22774;SDS011;11554;51.106;3.684;2022-12-10T20:05:01;33.00;;;20.20;;
22774;SDS011;11554;51.106;3.684;2022-12-10T20:10:00;36.50;;;20.90;;
22774;SDS011;11554;51.106;3.684;2022-12-10T20:15:00;36.50;;;20.90;;
22774;SDS011;11554;51.106;3.684;2022-12-10T20:20:00;38.10;;;22.90;;
22774;SDS011;11554;51.106;3.684;2022-12-10T20:25:00;38.10;;;22.90;;
22774;SDS011;11554;51.106;3.684;2022-12-10T20:30:00;34.70;;;19.50;;
22774;SDS011;11554;51.106;3.684;2022-12-10T20:35:00;34.70;;;19.50;;
22774;SDS011;11554;51.106;3.684;2022-12-10T20:40:00;32.90;;;18.50;;
22774;SDS011;11554;51.106;3.684;2022-12-10T20:45:02;32.90;;;18.50;;
22774;SDS011;11554;51.106;3.684;2022-12-10T20:50:00;28.90;;;16.80;;
22774;SDS011;11554;51.106;3.684;2022-12-10T20:55:00;28.90;;;16.80;;
22774;SDS011;11554;51.106;3.684;2022-12-10T21:00:00;34.40;;;18.70;;
22774;SDS011;11554;51.106;3.684;2022-12-10T21:05:00;34.40;;;18.70;;
22774;SDS011;11554;51.106;3.684;2022-12-10T21:10:00;28.90;;;15.50;;
22774;SDS011;11554;51.106;3.684;2022-12-10T21:15:00;28.90;;;15.50;;
22774;SDS011;11554;51.106;3.684;2022-12-10T21:20:00;26.30;;;13.80;;
22774;SDS011;11554;51.106;3.684;2022-12-10T21:25:00;26.30;;;13.80;;
22774;SDS011;11554;51.106;3.684;2022-12-10T21:30:00;33.10;;;17.90;;
22774;SDS011;11554;51.106;3.684;2022-12-10T21:35:00;33.10;;;17.90;;
22774;SDS011;11554;51.106;3.684;2022-12-10T21:40:00;26.70;;;13.60;;
22774;SDS011;11554;51.106;3.684;2022-12-10T21:45:00;26.70;;;13.60;;
22774;SDS011;11554;51.106;3.684;2022-12-10T21:50:00;28.10;;;15.60;;
22774;SDS011;11554;51.106;3.684;2022-12-10T21:55:00;28.10;;;15.60;;
22774;SDS011;11554;51.106;3.684;2022-12-10T22:00:00;30.70;;;16.30;;
22774;SDS011;11554;51.106;3.684;2022-12-10T22:05:00;30.70;;;16.30;;
22774;SDS011;11554;51.106;3.684;2022-12-10T22:10:00;26.40;;;14.50;;
22774;SDS011;11554;51.106;3.684;2022-12-10T22:15:01;26.40;;;14.50;;
22774;SDS011;11554;51.106;3.684;2022-12-10T22:20:01;27.90;;;15.80;;
22774;SDS011;11554;51.106;3.684;2022-12-10T22:25:01;27.90;;;15.80;;
22774;SDS011;11554;51.106;3.684;2022-12-10T22:30:00;26.50;;;15.20;;
22774;SDS011;11554;51.106;3.684;2022-12-10T22:35:00;26.50;;;15.20;;
22774;SDS011;11554;51.106;3.684;2022-12-10T22:40:00;26.40;;;14.90;;
22774;SDS011;11554;51.106;3.684;2022-12-10T22:45:00;26.40;;;14.90;;
22774;SDS011;11554;51.106;3.684;2022-12-10T22:50:00;32.70;;;16.50;;
22774;SDS011;11554;51.106;3.684;2022-12-10T22:55:00;32.70;;;16.50;;
22774;SDS011;11554;51.106;3.684;2022-12-10T23:00:00;27.90;;;15.00;;
22774;SDS011;11554;51.106;3.684;2022-12-10T23:05:00;27.90;;;15.00;;
22774;SDS011;11554;51.106;3.684;2022-12-10T23:10:00;28.00;;;15.70;;
22774;SDS011;11554;51.106;3.684;2022-12-10T23:15:00;28.00;;;15.70;;
22774;SDS011;11554;51.106;3.684;2022-12-10T23:20:00;27.60;;;14.20;;
22774;SDS011;11554;51.106;3.684;2022-12-10T23:25:00;27.60;;;14.20;;
22774;SDS011;11554;51.106;3.684;2022-12-10T23:30:00;29.60;;;16.20;;
22774;SDS011;11554;51.106;3.684;2022-12-10T23:35:00;29.60;;;16.20;;
22774;SDS011;11554;51.106;3.684;2022-12-10T23:40:00;28.10;;;15.90;;
22774;SDS011;11554;51.106;3.684;2022-12-10T23:45:01;28.10;;;15.90;;
22774;SDS011;11554;51.106;3.684;2022-12-10T23:50:00;25.60;;;14.10;;
22774;SDS011;11554;51.106;3.684;2022-12-10T23:55:01;25.60;;;14.10;;
